createdAt,value
2022-08-23T00:02:28.573Z,100417.28
2022-08-23T00:05:09.301Z,100422.84
2022-08-23T00:07:40.997Z,100419.47
2022-08-23T00:10:12.445Z,100415.28
2022-08-23T00:12:41.453Z,100411.16
2022-08-23T00:15:13.365Z,100409.66
2022-08-23T00:17:43.897Z,100406.28
2022-08-23T00:20:16.383Z,100400.44
2022-08-23T00:22:45.632Z,100401.50
2022-08-23T00:25:15.361Z,100406.97
2022-08-23T00:27:44.016Z,100404.53
2022-08-23T00:30:14.813Z,100409.06
2022-08-23T00:32:45.360Z,100408.31
2022-08-23T00:35:26.678Z,100403.34
2022-08-23T00:38:14.656Z,100410.72
2022-08-23T00:40:52.211Z,100405.09
2022-08-23T00:43:45.610Z,100417.06
2022-08-23T00:46:45.341Z,100421.22
2022-08-23T00:49:18.879Z,100427.97
2022-08-23T00:51:54.221Z,100423.09
2022-08-23T00:54:25.243Z,100422.88
2022-08-23T00:56:54.588Z,100426.09
2022-08-23T00:59:24.237Z,100429.91
2022-08-23T01:01:53.246Z,100426.75
2022-08-23T01:04:23.183Z,100430.34
2022-08-23T01:07:00.412Z,100436.78
2022-08-23T01:09:29.149Z,100439.53
2022-08-23T01:12:04.977Z,100429.09
2022-08-23T01:14:39.126Z,100432.72
2022-08-23T01:17:16.582Z,100436.28
2022-08-23T01:19:52.929Z,100434.59
2022-08-23T01:22:28.365Z,100443.56
2022-08-23T01:25:06.536Z,100442.69
2022-08-23T01:27:40.454Z,100440.34
2022-08-23T01:30:13.216Z,100439.72
2022-08-23T01:32:48.861Z,100438.19
2022-08-23T01:37:48.152Z,100444.41
2022-08-23T01:40:18.148Z,100432.78
2022-08-23T01:42:47.407Z,100441.75
2022-08-23T01:45:17.102Z,100439.28
2022-08-23T01:47:46.192Z,100445.88
2022-08-23T01:50:15.269Z,100446.09
2022-08-23T01:52:47.064Z,100456.97
2022-08-23T01:55:20.110Z,100461.75
2022-08-23T01:57:54.045Z,100451.38
2022-08-23T02:00:26.204Z,100453.53
2022-08-23T02:02:55.432Z,100444.97
2022-08-23T02:05:24.360Z,100449.03
2022-08-23T02:07:53.504Z,100448.34
2022-08-23T02:10:24.097Z,100453.03
2022-08-23T02:12:52.888Z,100457.81
2022-08-23T02:15:23.565Z,100457.06
2022-08-23T02:17:53.017Z,100460.88
2022-08-23T02:20:22.435Z,100458.53
2022-08-23T02:22:51.364Z,100455.94
2022-08-23T02:25:20.072Z,100461.47
2022-08-23T02:27:49.830Z,100454.63
2022-08-23T02:30:18.652Z,100471.56
2022-08-23T02:32:47.324Z,100463.78
2022-08-23T02:35:16.926Z,100466.53
2022-08-23T02:37:45.392Z,100471.19
2022-08-23T02:40:14.221Z,100476.72
2022-08-23T02:42:43.574Z,100476.91
2022-08-23T02:45:14.261Z,100470.06
2022-08-23T02:47:48.018Z,100473.88
2022-08-23T02:50:22.085Z,100468.97
2022-08-23T02:52:50.763Z,100479.81
2022-08-23T02:55:19.385Z,100480.00
2022-08-23T02:57:48.235Z,100470.50
2022-08-23T03:00:19.500Z,100476.75
2022-08-23T03:02:48.697Z,100478.88
2022-08-23T03:05:18.389Z,100468.59
2022-08-23T03:07:46.997Z,100473.47
2022-08-23T03:10:16.368Z,100481.09
2022-08-23T03:12:50.024Z,100479.72
2022-08-23T03:15:20.081Z,100488.00
2022-08-23T03:17:49.225Z,100484.59
2022-08-23T03:20:17.689Z,100488.19
2022-08-23T03:22:54.895Z,100489.31
2022-08-23T03:25:26.875Z,100493.16
2022-08-23T03:28:07.388Z,100490.88
2022-08-23T03:30:40.627Z,100485.88
2022-08-23T03:33:10.683Z,100485.09
2022-08-23T03:35:39.660Z,100486.06
2022-08-23T03:38:11.193Z,100490.53
2022-08-23T03:40:39.824Z,100486.97
2022-08-23T03:43:08.610Z,100491.44
2022-08-23T03:45:40.333Z,100491.56
2022-08-23T03:48:10.302Z,100493.44
2022-08-23T03:50:39.832Z,100497.97
2022-08-23T03:53:09.081Z,100495.50
2022-08-23T03:55:42.437Z,100503.75
2022-08-23T03:58:14.603Z,100505.84
2022-08-23T04:00:44.500Z,100505.16
2022-08-23T04:03:13.155Z,100510.66
2022-08-23T04:05:57.843Z,100513.50
2022-08-23T04:08:28.055Z,100514.41
2022-08-23T04:11:03.275Z,100518.88
2022-08-23T04:13:31.987Z,100520.78
2022-08-23T04:16:05.817Z,100524.38
2022-08-23T04:18:36.628Z,100520.97
2022-08-23T04:21:10.957Z,100536.19
2022-08-23T04:23:40.562Z,100532.97
2022-08-23T04:26:09.632Z,100543.78
2022-08-23T04:28:39.621Z,100542.22
2022-08-23T04:31:09.700Z,100540.69
2022-08-23T04:33:41.048Z,100546.19
2022-08-23T04:36:12.980Z,100548.06
2022-08-23T04:38:41.541Z,100544.66
2022-08-23T04:41:30.099Z,100549.09
2022-08-23T04:44:00.139Z,100540.19
2022-08-23T04:46:31.450Z,100554.22
2022-08-23T04:49:02.703Z,100549.78
2022-08-23T04:51:31.309Z,100556.81
2022-08-23T04:53:59.759Z,100551.50
2022-08-23T04:56:57.401Z,100553.19
2022-08-23T04:59:26.136Z,100558.31
2022-08-23T05:01:55.884Z,100562.72
2022-08-23T05:04:24.462Z,100566.13
2022-08-23T05:06:53.205Z,100570.31
2022-08-23T05:09:25.057Z,100570.16
2022-08-23T05:11:53.636Z,100571.84
2022-08-23T05:14:23.543Z,100572.63
2022-08-23T05:16:52.550Z,100575.09
2022-08-23T05:19:24.350Z,100579.56
2022-08-23T05:21:56.913Z,100584.78
2022-08-23T05:24:32.237Z,100584.69
2022-08-23T05:27:01.585Z,100583.63
2022-08-23T05:29:31.262Z,100595.81
2022-08-23T05:31:59.999Z,100592.03
2022-08-23T05:34:29.937Z,100600.41
2022-08-23T05:36:59.849Z,100601.94
2022-08-23T05:39:41.455Z,100610.41
2022-08-23T05:42:16.999Z,100606.72
2022-08-23T05:44:46.591Z,100620.09
2022-08-23T05:47:24.611Z,100616.22
2022-08-23T05:50:24.128Z,100623.06
2022-08-23T05:52:52.962Z,100618.34
2022-08-23T05:55:22.277Z,100619.88
2022-08-23T05:58:23.037Z,100621.44
2022-08-23T06:00:51.889Z,100621.28
2022-08-23T06:03:20.836Z,100621.81
2022-08-23T06:05:51.025Z,100631.16
2022-08-23T06:08:19.429Z,100631.72
2022-08-23T06:10:47.840Z,100636.69
2022-08-23T06:13:24.306Z,100633.66
2022-08-23T06:15:52.721Z,100645.81
2022-08-23T06:18:21.192Z,100638.44
2022-08-23T06:21:02.383Z,100641.66
2022-08-23T06:23:41.886Z,100646.59
2022-08-23T06:26:16.726Z,100640.91
2022-08-23T06:28:50.354Z,100643.19
2022-08-23T06:31:40.862Z,100638.34
2022-08-23T06:34:18.501Z,100640.63
2022-08-23T06:37:18.021Z,100648.13
2022-08-23T06:40:27.711Z,100647.69
2022-08-23T06:43:01.406Z,100649.84
2022-08-23T06:45:58.314Z,100641.47
2022-08-23T06:48:27.082Z,100648.16
2022-08-23T06:50:56.023Z,100656.50
2022-08-23T06:53:34.073Z,100651.63
2022-08-23T06:56:35.326Z,100653.59
2022-08-23T06:59:08.278Z,100644.16
2022-08-23T07:02:05.389Z,100651.34
2022-08-23T07:04:54.223Z,100656.56
2022-08-23T07:07:44.178Z,100656.63
2022-08-23T07:10:16.299Z,100652.53
2022-08-23T07:12:45.629Z,100649.41
2022-08-23T07:15:14.984Z,100650.44
2022-08-23T07:17:46.151Z,100645.28
2022-08-23T07:20:15.545Z,100647.38
2022-08-23T07:22:45.865Z,100648.84
2022-08-23T07:25:18.143Z,100641.47
2022-08-23T07:27:50.055Z,100647.00
2022-08-23T07:30:22.122Z,100650.44
2022-08-23T07:32:52.680Z,100655.88
2022-08-23T07:35:23.643Z,100653.91
2022-08-23T07:37:55.439Z,100654.19
2022-08-23T07:40:27.753Z,100642.56
2022-08-23T07:42:59.723Z,100644.25
2022-08-23T07:45:30.161Z,100644.56
2022-08-23T07:48:03.004Z,100657.16
2022-08-23T07:50:37.776Z,100654.97
2022-08-23T07:53:37.710Z,100651.81
2022-08-23T07:56:13.759Z,100648.84
2022-08-23T07:58:54.677Z,100652.66
2022-08-23T08:01:49.925Z,100646.28
2022-08-23T08:04:18.434Z,100647.91
2022-08-23T08:07:10.609Z,100653.84
2022-08-23T08:09:44.150Z,100661.44
2022-08-23T08:12:14.033Z,100654.44
2022-08-23T08:14:44.684Z,100666.66
2022-08-23T08:17:15.900Z,100667.25
2022-08-23T08:20:21.726Z,100670.53
2022-08-23T08:23:30.132Z,100665.25
2022-08-23T08:26:16.048Z,100667.34
2022-08-23T08:28:56.250Z,100675.84
2022-08-23T08:31:27.459Z,100677.53
2022-08-23T08:33:57.362Z,100679.22
2022-08-23T08:36:33.565Z,100676.53
2022-08-23T08:39:02.871Z,100679.91
2022-08-23T08:42:04.498Z,100678.25
2022-08-23T08:44:46.022Z,100675.53
2022-08-23T08:47:31.407Z,100677.72
2022-08-23T08:50:10.738Z,100674.16
2022-08-23T08:52:44.965Z,100672.25
2022-08-23T08:55:26.207Z,100678.78
2022-08-23T08:57:56.494Z,100679.06
2022-08-23T09:00:32.542Z,100670.19
2022-08-23T09:03:05.436Z,100675.19
2022-08-23T09:05:39.571Z,100676.97
2022-08-23T09:08:27.780Z,100671.53
2022-08-23T09:11:06.509Z,100666.50
2022-08-23T09:14:18.503Z,100670.31
2022-08-23T09:16:54.254Z,100665.16
2022-08-23T09:19:26.198Z,100671.88
2022-08-23T09:22:00.165Z,100670.53
2022-08-23T09:24:29.040Z,100673.31
2022-08-23T09:27:12.637Z,100674.06
2022-08-23T09:29:53.388Z,100674.44
2022-08-23T09:32:34.540Z,100677.28
2022-08-23T09:35:17.890Z,100671.03
2022-08-23T09:38:00.553Z,100662.16
2022-08-23T09:40:41.079Z,100664.53
2022-08-23T09:43:16.310Z,100656.03
2022-08-23T09:45:58.884Z,100657.69
2022-08-23T09:48:40.574Z,100651.44
2022-08-23T09:51:21.220Z,100653.38
2022-08-23T09:54:03.622Z,100656.81
2022-08-23T09:56:37.928Z,100642.22
2022-08-23T09:59:33.616Z,100639.53
2022-08-23T10:02:18.425Z,100633.69
2022-08-23T10:05:02.027Z,100641.25
2022-08-23T10:07:42.458Z,100635.56
2022-08-23T10:10:30.227Z,100636.13
2022-08-23T10:13:03.423Z,100637.44
2022-08-23T10:15:49.327Z,100627.50
2022-08-23T10:18:33.469Z,100630.66
2022-08-23T10:21:08.927Z,100627.91
2022-08-23T10:23:51.881Z,100626.00
2022-08-23T10:26:28.385Z,100622.78
2022-08-23T10:29:24.808Z,100626.34
2022-08-23T10:32:04.609Z,100625.50
2022-08-23T10:34:54.133Z,100614.22
2022-08-23T10:37:46.789Z,100615.22
2022-08-23T10:40:23.674Z,100614.22
2022-08-23T10:43:11.416Z,100627.16
2022-08-23T10:45:44.347Z,100625.41
2022-08-23T10:48:29.470Z,100617.47
2022-08-23T10:51:03.733Z,100629.72
2022-08-23T10:53:46.185Z,100609.16
2022-08-23T10:56:19.212Z,100611.47
2022-08-23T10:58:57.999Z,100604.16
2022-08-23T11:01:35.111Z,100607.53
2022-08-23T11:04:09.983Z,100609.63
2022-08-23T11:06:59.111Z,100600.19
2022-08-23T11:09:53.732Z,100591.63
2022-08-23T11:12:31.891Z,100598.75
2022-08-23T11:15:20.409Z,100601.59
2022-08-23T11:18:08.624Z,100589.66
2022-08-23T11:21:08.321Z,100592.72
2022-08-23T11:23:49.479Z,100596.41
2022-08-23T11:27:07.421Z,100579.47
2022-08-23T11:29:43.562Z,100581.22
2022-08-23T11:32:45.390Z,100585.25
2022-08-23T11:35:43.336Z,100569.41
2022-08-23T11:38:15.475Z,100580.47
2022-08-23T11:41:23.508Z,100584.88
2022-08-23T11:44:28.975Z,100583.34
2022-08-23T11:47:06.688Z,100579.47
2022-08-23T11:50:12.959Z,100580.34
2022-08-23T11:53:47.275Z,100587.34
2022-08-23T11:56:46.710Z,100579.00
2022-08-23T11:59:42.846Z,100576.03
2022-08-23T12:02:47.474Z,100582.91
2022-08-23T12:05:32.443Z,100571.53
2022-08-23T12:08:51.042Z,100575.44
2022-08-23T12:11:21.508Z,100562.81
2022-08-23T12:14:01.626Z,100574.69
2022-08-23T12:16:44.253Z,100557.50
2022-08-23T12:19:35.855Z,100563.41
2022-08-23T12:22:13.746Z,100554.34
2022-08-23T12:24:46.996Z,100555.75
2022-08-23T12:27:30.084Z,100560.19
2022-08-23T12:30:08.511Z,100558.28
2022-08-23T12:32:48.782Z,100554.56
2022-08-23T12:35:36.214Z,100549.84
2022-08-23T12:38:12.064Z,100552.94
2022-08-23T12:40:44.741Z,100554.88
2022-08-23T12:43:22.949Z,100553.69
2022-08-23T12:45:56.240Z,100545.56
2022-08-23T12:48:29.824Z,100546.38
2022-08-23T12:51:01.100Z,100537.63
2022-08-23T12:53:34.500Z,100544.94
2022-08-23T12:56:07.816Z,100544.19
2022-08-23T12:58:40.434Z,100537.41
2022-08-23T13:01:21.468Z,100537.00
2022-08-23T13:03:57.302Z,100540.84
2022-08-23T13:06:32.520Z,100536.69
2022-08-23T13:09:07.108Z,100536.56
2022-08-23T13:11:37.885Z,100533.66
2022-08-23T13:14:25.609Z,100536.63
2022-08-23T13:16:54.982Z,100532.09
2022-08-23T13:19:30.515Z,100529.25
2022-08-23T13:22:13.788Z,100528.91
2022-08-23T13:24:44.991Z,100526.13
2022-08-23T13:27:23.881Z,100519.50
2022-08-23T13:29:56.471Z,100517.97
2022-08-23T13:32:41.757Z,100525.63
2022-08-23T13:35:36.752Z,100522.41
2022-08-23T13:38:21.590Z,100521.00
2022-08-23T13:41:06.115Z,100520.06
2022-08-23T13:43:40.873Z,100517.06
2022-08-23T13:46:17.982Z,100516.03
2022-08-23T13:48:59.328Z,100513.78
2022-08-23T13:51:37.057Z,100509.13
2022-08-23T13:54:08.953Z,100509.22
2022-08-23T13:56:42.139Z,100513.78
2022-08-23T13:59:28.142Z,100509.72
2022-08-23T14:02:02.554Z,100512.44
2022-08-23T14:04:31.212Z,100512.13
2022-08-23T14:07:01.064Z,100513.81
2022-08-23T14:09:29.577Z,100509.88
2022-08-23T14:12:03.101Z,100503.72
2022-08-23T14:14:34.589Z,100504.22
2022-08-23T14:17:03.451Z,100498.28
2022-08-23T14:22:21.989Z,100505.97
2022-08-23T14:24:50.326Z,100502.06
2022-08-23T14:27:18.729Z,100499.63
2022-08-23T14:29:47.149Z,100501.56
2022-08-23T14:32:15.613Z,100493.84
2022-08-23T14:34:44.079Z,100503.84
2022-08-23T14:40:02.486Z,100511.94
2022-08-23T14:42:31.738Z,100495.91
2022-08-23T14:45:00.190Z,100495.19
2022-08-23T14:47:28.872Z,100504.56
2022-08-23T14:49:57.569Z,100494.19
2022-08-23T14:52:26.026Z,100499.06
2022-08-23T14:54:54.483Z,100487.81
2022-08-23T14:57:24.321Z,100493.47
2022-08-23T14:59:52.667Z,100495.22
2022-08-23T15:02:26.308Z,100484.69
2022-08-23T15:04:55.715Z,100495.19
2022-08-23T15:07:24.640Z,100497.91
2022-08-23T15:09:55.550Z,100492.06
2022-08-23T15:15:21.743Z,100486.84
2022-08-23T15:17:54.192Z,100493.50
2022-08-23T15:20:25.985Z,100487.38
2022-08-23T15:22:55.395Z,100492.16
2022-08-23T15:25:25.822Z,100486.00
2022-08-23T15:27:57.008Z,100481.91
2022-08-23T15:30:26.118Z,100473.63
2022-08-23T15:32:58.700Z,100481.34
2022-08-23T15:35:28.547Z,100479.00
2022-08-23T15:37:58.349Z,100474.53
2022-08-23T15:40:27.212Z,100480.91
2022-08-23T15:42:57.165Z,100470.34
2022-08-23T15:45:25.570Z,100474.91
2022-08-23T15:47:56.822Z,100468.34
2022-08-23T15:50:28.829Z,100476.75
2022-08-23T15:52:57.273Z,100470.53
2022-08-23T15:55:29.188Z,100475.19
2022-08-23T15:57:59.244Z,100476.28
2022-08-23T16:00:29.280Z,100482.50
2022-08-23T16:03:18.354Z,100477.09
2022-08-23T16:05:50.201Z,100472.81
2022-08-23T16:08:23.732Z,100478.88
2022-08-23T16:10:52.451Z,100471.72
2022-08-23T16:13:23.569Z,100472.19
2022-08-23T16:15:52.540Z,100471.03
2022-08-23T16:18:21.270Z,100470.88
2022-08-23T16:20:49.773Z,100474.34
2022-08-23T16:23:23.527Z,100468.38
2022-08-23T16:25:55.112Z,100464.09
2022-08-23T16:28:27.809Z,100467.06
2022-08-23T16:30:56.274Z,100465.81
2022-08-23T16:33:24.697Z,100467.44
2022-08-23T16:35:53.241Z,100466.78
2022-08-23T16:38:21.661Z,100466.63
2022-08-23T16:40:50.310Z,100475.28
2022-08-23T16:43:18.739Z,100473.91
2022-08-23T16:45:48.509Z,100474.66
2022-08-23T16:48:17.415Z,100465.97
2022-08-23T16:50:46.358Z,100472.53
2022-08-23T16:53:15.697Z,100469.34
2022-08-23T16:55:44.544Z,100469.25
2022-08-23T16:58:13.003Z,100473.19
2022-08-23T17:00:41.380Z,100473.00
2022-08-23T17:03:11.180Z,100477.94
2022-08-23T17:05:39.561Z,100478.41
2022-08-23T17:08:08.197Z,100481.31
2022-08-23T17:10:36.548Z,100475.28
2022-08-23T17:13:06.149Z,100476.94
2022-08-23T17:15:37.645Z,100479.34
2022-08-23T17:18:06.867Z,100476.97
2022-08-23T17:20:39.294Z,100474.25
2022-08-23T17:23:09.360Z,100480.72
2022-08-23T17:25:41.604Z,100476.91
2022-08-23T17:28:10.006Z,100478.31
2022-08-23T17:30:38.452Z,100482.09
2022-08-23T17:33:08.359Z,100480.44
2022-08-23T17:35:38.429Z,100487.09
2022-08-23T17:38:08.434Z,100491.22
2022-08-23T17:40:41.166Z,100491.69
2022-08-23T17:43:10.067Z,100492.16
2022-08-23T17:45:43.601Z,100492.97
2022-08-23T17:48:12.716Z,100492.75
2022-08-23T17:50:43.628Z,100493.50
2022-08-23T17:53:13.553Z,100505.16
2022-08-23T17:55:42.148Z,100500.03
2022-08-23T17:58:12.091Z,100508.09
2022-08-23T18:00:41.753Z,100511.91
2022-08-23T18:03:10.186Z,100512.84
2022-08-23T18:05:42.720Z,100516.22
2022-08-23T18:08:11.580Z,100518.78
2022-08-23T18:10:40.528Z,100520.31
2022-08-23T18:13:08.974Z,100521.75
2022-08-23T18:15:37.618Z,100520.53
2022-08-23T18:18:06.516Z,100517.22
2022-08-23T18:20:35.449Z,100521.00
2022-08-23T18:23:05.887Z,100530.41
2022-08-23T18:25:34.659Z,100525.88
2022-08-23T18:28:09.159Z,100530.25
2022-08-23T18:30:38.887Z,100529.09
2022-08-23T18:33:12.416Z,100535.72
2022-08-23T18:35:42.754Z,100538.09
2022-08-23T18:38:13.737Z,100547.19
2022-08-23T18:40:47.341Z,100553.94
2022-08-23T18:43:19.052Z,100560.69
2022-08-23T18:45:49.659Z,100552.50
2022-08-23T18:48:19.549Z,100552.31
2022-08-23T18:50:48.740Z,100559.00
2022-08-23T18:53:20.959Z,100562.84
2022-08-23T18:55:50.042Z,100562.09
2022-08-23T18:58:19.060Z,100570.34
2022-08-23T19:00:50.599Z,100568.94
2022-08-23T19:03:19.485Z,100571.84
2022-08-23T19:05:48.179Z,100577.38
2022-08-23T19:08:19.385Z,100584.03
2022-08-23T19:10:48.408Z,100585.28
2022-08-23T19:13:17.017Z,100585.00
2022-08-23T19:15:45.468Z,100587.50
2022-08-23T19:18:14.524Z,100585.97
2022-08-23T19:20:43.392Z,100583.41
2022-08-23T19:23:12.069Z,100595.53
2022-08-23T19:25:45.266Z,100597.56
2022-08-23T19:28:14.633Z,100600.31
2022-08-23T19:30:43.706Z,100601.06
2022-08-23T19:33:12.301Z,100594.56
2022-08-23T19:35:41.004Z,100603.94
2022-08-23T19:38:09.550Z,100607.38
2022-08-23T19:40:37.972Z,100612.78
2022-08-23T19:43:08.078Z,100613.09
2022-08-23T19:45:37.670Z,100619.63
2022-08-23T19:48:06.622Z,100612.72
2022-08-23T19:50:35.184Z,100610.84
2022-08-23T19:53:03.822Z,100616.81
2022-08-23T19:55:32.570Z,100615.69
2022-08-23T19:58:01.303Z,100622.66
2022-08-23T20:00:31.904Z,100621.91
2022-08-23T20:03:00.847Z,100625.84
2022-08-23T20:05:29.557Z,100622.59
2022-08-23T20:07:57.935Z,100631.47
2022-08-23T20:10:26.339Z,100630.31
2022-08-23T20:12:55.008Z,100634.56
2022-08-23T20:15:23.386Z,100628.00
2022-08-23T20:17:53.346Z,100624.88
2022-08-23T20:20:22.032Z,100633.19
2022-08-23T20:23:07.663Z,100631.91
2022-08-23T20:25:36.620Z,100634.16
2022-08-23T20:28:08.198Z,100636.38
2022-08-23T20:30:37.520Z,100640.44
2022-08-23T20:33:07.305Z,100638.31
2022-08-23T20:35:35.716Z,100633.19
2022-08-23T20:38:04.522Z,100633.63
2022-08-23T20:40:33.173Z,100642.78
2022-08-23T20:43:01.742Z,100640.50
2022-08-23T20:45:30.538Z,100637.50
2022-08-23T20:47:58.908Z,100632.81
2022-08-23T20:50:28.794Z,100634.25
2022-08-23T20:52:57.282Z,100636.63
2022-08-23T20:55:25.728Z,100637.16
2022-08-23T20:57:54.120Z,100643.03
2022-08-23T21:00:22.754Z,100642.47
2022-08-23T21:02:51.128Z,100646.50
2022-08-23T21:05:19.706Z,100653.41
2022-08-23T21:07:49.507Z,100649.50
2022-08-23T21:10:18.010Z,100653.56
2022-08-23T21:12:46.378Z,100655.78
2022-08-23T21:15:15.078Z,100655.31
2022-08-23T21:17:43.452Z,100653.00
2022-08-23T21:20:16.201Z,100658.63
2022-08-23T21:22:44.647Z,100658.03
2022-08-23T21:25:14.565Z,100667.38
2022-08-23T21:27:43.628Z,100660.84
2022-08-23T21:30:13.240Z,100668.41
2022-08-23T21:32:41.643Z,100669.75
2022-08-23T21:35:13.840Z,100665.72
2022-08-23T21:37:42.304Z,100666.22
2022-08-23T21:40:14.048Z,100668.47
2022-08-23T21:42:42.497Z,100672.34
2022-08-23T21:45:11.522Z,100664.53
2022-08-23T21:47:40.193Z,100669.16
2022-08-23T21:50:09.324Z,100664.19
2022-08-23T21:52:37.698Z,100674.31
2022-08-23T21:55:07.524Z,100666.53
2022-08-23T21:57:37.435Z,100663.25
2022-08-23T22:00:10.869Z,100666.03
2022-08-23T22:02:41.145Z,100665.28
2022-08-23T22:05:10.013Z,100661.91
2022-08-23T22:07:39.407Z,100658.47
2022-08-23T22:10:10.576Z,100662.16
2022-08-23T22:12:41.326Z,100669.41
2022-08-23T22:15:11.164Z,100668.66
2022-08-23T22:17:39.533Z,100662.59
2022-08-23T22:20:10.493Z,100659.19
2022-08-23T22:22:39.221Z,100657.50
2022-08-23T22:25:09.237Z,100654.91
2022-08-23T22:27:39.383Z,100663.09
2022-08-23T22:30:09.532Z,100665.03
2022-08-23T22:32:38.247Z,100664.19
2022-08-23T22:35:08.784Z,100663.31
2022-08-23T22:37:43.048Z,100665.28
2022-08-23T22:40:22.870Z,100658.44
2022-08-23T22:42:52.820Z,100664.03
2022-08-23T22:45:22.918Z,100667.94
2022-08-23T22:47:51.372Z,100656.72
2022-08-23T22:50:19.899Z,100657.94
2022-08-23T22:52:48.635Z,100651.97
2022-08-23T22:55:17.258Z,100657.56
2022-08-23T22:57:45.690Z,100658.66
2022-08-23T23:00:16.512Z,100663.25
2022-08-23T23:02:44.980Z,100654.63
2022-08-23T23:05:13.501Z,100656.56
2022-08-23T23:07:59.545Z,100661.31
2022-08-23T23:10:28.083Z,100665.19
2022-08-23T23:12:56.711Z,100665.28
2022-08-23T23:15:26.518Z,100669.06
2022-08-23T23:17:54.868Z,100665.66
2022-08-23T23:20:39.092Z,100676.59
2022-08-23T23:23:12.815Z,100670.63
2022-08-23T23:25:42.180Z,100671.78
2022-08-23T23:28:10.933Z,100671.28
2022-08-23T23:30:41.714Z,100678.81
2022-08-23T23:33:10.284Z,100673.81
2022-08-23T23:35:39.234Z,100675.84
2022-08-23T23:38:08.281Z,100675.25
2022-08-23T23:40:37.086Z,100685.19
2022-08-23T23:43:05.812Z,100671.19
2022-08-23T23:45:38.368Z,100674.22
2022-08-23T23:48:08.686Z,100683.53
2022-08-23T23:50:42.601Z,100682.19
2022-08-23T23:53:13.964Z,100696.97
2022-08-23T23:55:43.120Z,100699.34
2022-08-23T23:58:12.582Z,100707.78
